sensor_id;sensor_type;location;lat;lon;timestamp;P1;durP1;ratioP1;P2;durP2;ratioP2
16642;SDS011;8435;52.184;5.406;2023-04-21T00:00:56;10.50;;;9.40;;
16642;SDS011;8435;52.184;5.406;2023-04-21T00:03:24;11.73;;;10.53;;
16642;SDS011;8435;52.184;5.406;2023-04-21T00:05:52;11.43;;;10.23;;
16642;SDS011;8435;52.184;5.406;2023-04-21T00:08:22;11.10;;;10.00;;
16642;SDS011;8435;52.184;5.406;2023-04-21T00:10:50;10.63;;;9.37;;
16642;SDS011;8435;52.184;5.406;2023-04-21T00:13:20;11.37;;;10.27;;
16642;SDS011;8435;52.184;5.406;2023-04-21T00:15:49;12.67;;;10.87;;
16642;SDS011;8435;52.184;5.406;2023-04-21T00:18:16;11.70;;;10.27;;
16642;SDS011;8435;52.184;5.406;2023-04-21T00:20:43;12.93;;;10.50;;
16642;SDS011;8435;52.184;5.406;2023-04-21T00:23:10;11.53;;;10.20;;
16642;SDS011;8435;52.184;5.406;2023-04-21T00:25:36;11.53;;;10.43;;
16642;SDS011;8435;52.184;5.406;2023-04-21T00:28:03;11.93;;;10.23;;
16642;SDS011;8435;52.184;5.406;2023-04-21T00:30:30;13.00;;;11.70;;
16642;SDS011;8435;52.184;5.406;2023-04-21T00:32:58;13.37;;;11.40;;
16642;SDS011;8435;52.184;5.406;2023-04-21T00:35:27;12.60;;;11.17;;
16642;SDS011;8435;52.184;5.406;2023-04-21T00:37:54;16.50;;;11.50;;
16642;SDS011;8435;52.184;5.406;2023-04-21T00:40:21;13.47;;;12.00;;
16642;SDS011;8435;52.184;5.406;2023-04-21T00:42:48;14.57;;;12.57;;
16642;SDS011;8435;52.184;5.406;2023-04-21T00:45:15;15.33;;;13.43;;
16642;SDS011;8435;52.184;5.406;2023-04-21T00:47:42;13.63;;;12.20;;
16642;SDS011;8435;52.184;5.406;2023-04-21T00:50:10;14.83;;;12.67;;
16642;SDS011;8435;52.184;5.406;2023-04-21T00:52:38;13.17;;;11.60;;
16642;SDS011;8435;52.184;5.406;2023-04-21T00:55:06;13.13;;;11.83;;
16642;SDS011;8435;52.184;5.406;2023-04-21T00:57:36;12.60;;;11.30;;
16642;SDS011;8435;52.184;5.406;2023-04-21T01:00:04;13.93;;;12.43;;
16642;SDS011;8435;52.184;5.406;2023-04-21T01:02:34;13.23;;;11.43;;
16642;SDS011;8435;52.184;5.406;2023-04-21T01:05:03;13.90;;;11.43;;
16642;SDS011;8435;52.184;5.406;2023-04-21T01:07:34;13.33;;;11.70;;
16642;SDS011;8435;52.184;5.406;2023-04-21T01:10:01;13.93;;;12.23;;
16642;SDS011;8435;52.184;5.406;2023-04-21T01:12:28;13.73;;;12.27;;
16642;SDS011;8435;52.184;5.406;2023-04-21T01:14:55;13.70;;;12.30;;
16642;SDS011;8435;52.184;5.406;2023-04-21T01:17:22;13.43;;;12.03;;
16642;SDS011;8435;52.184;5.406;2023-04-21T01:19:49;12.83;;;11.47;;
16642;SDS011;8435;52.184;5.406;2023-04-21T01:22:26;15.33;;;13.17;;
16642;SDS011;8435;52.184;5.406;2023-04-21T01:24:53;15.57;;;12.23;;
16642;SDS011;8435;52.184;5.406;2023-04-21T01:27:20;14.23;;;12.73;;
16642;SDS011;8435;52.184;5.406;2023-04-21T01:29:48;14.70;;;13.17;;
16642;SDS011;8435;52.184;5.406;2023-04-21T01:32:17;15.60;;;13.00;;
16642;SDS011;8435;52.184;5.406;2023-04-21T01:34:45;18.27;;;15.73;;
16642;SDS011;8435;52.184;5.406;2023-04-21T01:37:13;14.93;;;12.93;;
16642;SDS011;8435;52.184;5.406;2023-04-21T01:39:43;15.60;;;12.73;;
16642;SDS011;8435;52.184;5.406;2023-04-21T01:42:12;16.50;;;14.40;;
16642;SDS011;8435;52.184;5.406;2023-04-21T01:44:39;15.40;;;13.50;;
16642;SDS011;8435;52.184;5.406;2023-04-21T01:47:06;13.87;;;12.47;;
16642;SDS011;8435;52.184;5.406;2023-04-21T01:49:33;15.20;;;13.33;;
16642;SDS011;8435;52.184;5.406;2023-04-21T01:52:00;13.77;;;12.37;;
16642;SDS011;8435;52.184;5.406;2023-04-21T01:54:27;15.23;;;13.03;;
16642;SDS011;8435;52.184;5.406;2023-04-21T01:56:55;16.10;;;12.57;;
16642;SDS011;8435;52.184;5.406;2023-04-21T01:59:27;14.43;;;12.80;;
16642;SDS011;8435;52.184;5.406;2023-04-21T02:01:59;16.23;;;12.60;;
16642;SDS011;8435;52.184;5.406;2023-04-21T02:04:29;14.47;;;12.97;;
16642;SDS011;8435;52.184;5.406;2023-04-21T02:06:56;15.23;;;13.20;;
16642;SDS011;8435;52.184;5.406;2023-04-21T02:09:23;15.90;;;13.30;;
16642;SDS011;8435;52.184;5.406;2023-04-21T02:11:50;15.97;;;14.27;;
16642;SDS011;8435;52.184;5.406;2023-04-21T02:14:18;15.50;;;14.00;;
16642;SDS011;8435;52.184;5.406;2023-04-21T02:16:45;14.57;;;13.00;;
16642;SDS011;8435;52.184;5.406;2023-04-21T02:19:11;17.63;;;13.97;;
16642;SDS011;8435;52.184;5.406;2023-04-21T02:21:38;18.97;;;13.13;;
16642;SDS011;8435;52.184;5.406;2023-04-21T02:24:05;16.80;;;14.07;;
16642;SDS011;8435;52.184;5.406;2023-04-21T02:26:32;15.90;;;13.67;;
16642;SDS011;8435;52.184;5.406;2023-04-21T02:28:59;18.87;;;14.97;;
16642;SDS011;8435;52.184;5.406;2023-04-21T02:31:27;15.83;;;13.23;;
16642;SDS011;8435;52.184;5.406;2023-04-21T02:33:54;15.47;;;13.87;;
16642;SDS011;8435;52.184;5.406;2023-04-21T02:36:24;16.27;;;14.50;;
16642;SDS011;8435;52.184;5.406;2023-04-21T02:38:51;15.50;;;13.90;;
16642;SDS011;8435;52.184;5.406;2023-04-21T02:41:18;16.83;;;13.57;;
16642;SDS011;8435;52.184;5.406;2023-04-21T02:43:44;17.43;;;14.83;;
16642;SDS011;8435;52.184;5.406;2023-04-21T02:46:11;17.20;;;14.20;;
16642;SDS011;8435;52.184;5.406;2023-04-21T02:48:42;16.03;;;13.70;;
16642;SDS011;8435;52.184;5.406;2023-04-21T02:51:12;15.57;;;13.97;;
16642;SDS011;8435;52.184;5.406;2023-04-21T02:53:39;17.00;;;14.70;;
16642;SDS011;8435;52.184;5.406;2023-04-21T02:56:07;15.03;;;13.50;;
16642;SDS011;8435;52.184;5.406;2023-04-21T02:58:34;15.53;;;13.87;;
16642;SDS011;8435;52.184;5.406;2023-04-21T03:01:01;15.80;;;14.10;;
16642;SDS011;8435;52.184;5.406;2023-04-21T03:03:32;15.97;;;14.27;;
16642;SDS011;8435;52.184;5.406;2023-04-21T03:06:02;16.77;;;14.53;;
16642;SDS011;8435;52.184;5.406;2023-04-21T03:08:30;16.43;;;14.73;;
16642;SDS011;8435;52.184;5.406;2023-04-21T03:10:57;15.87;;;14.17;;
16642;SDS011;8435;52.184;5.406;2023-04-21T03:13:25;16.50;;;14.17;;
16642;SDS011;8435;52.184;5.406;2023-04-21T03:15:52;16.10;;;13.80;;
16642;SDS011;8435;52.184;5.406;2023-04-21T03:18:18;15.70;;;14.00;;
16642;SDS011;8435;52.184;5.406;2023-04-21T03:20:45;15.13;;;13.53;;
16642;SDS011;8435;52.184;5.406;2023-04-21T03:23:13;17.10;;;14.27;;
16642;SDS011;8435;52.184;5.406;2023-04-21T03:25:41;15.33;;;13.80;;
16642;SDS011;8435;52.184;5.406;2023-04-21T03:28:08;18.50;;;15.53;;
16642;SDS011;8435;52.184;5.406;2023-04-21T03:30:35;16.00;;;14.40;;
16642;SDS011;8435;52.184;5.406;2023-04-21T03:33:01;16.97;;;14.03;;
16642;SDS011;8435;52.184;5.406;2023-04-21T03:35:28;16.53;;;14.83;;
16642;SDS011;8435;52.184;5.406;2023-04-21T03:37:55;15.93;;;14.23;;
16642;SDS011;8435;52.184;5.406;2023-04-21T03:40:23;16.00;;;14.40;;
16642;SDS011;8435;52.184;5.406;2023-04-21T03:42:50;16.80;;;14.97;;
16642;SDS011;8435;52.184;5.406;2023-04-21T03:45:17;15.53;;;13.93;;
16642;SDS011;8435;52.184;5.406;2023-04-21T03:47:46;16.90;;;15.00;;
16642;SDS011;8435;52.184;5.406;2023-04-21T03:50:13;17.97;;;16.07;;
16642;SDS011;8435;52.184;5.406;2023-04-21T03:52:40;16.30;;;14.47;;
16642;SDS011;8435;52.184;5.406;2023-04-21T03:55:07;17.23;;;14.90;;
16642;SDS011;8435;52.184;5.406;2023-04-21T03:57:37;16.23;;;13.70;;
16642;SDS011;8435;52.184;5.406;2023-04-21T04:00:05;15.13;;;13.53;;
16642;SDS011;8435;52.184;5.406;2023-04-21T04:02:36;15.53;;;13.90;;
16642;SDS011;8435;52.184;5.406;2023-04-21T04:05:03;15.07;;;13.50;;
16642;SDS011;8435;52.184;5.406;2023-04-21T04:07:31;15.67;;;13.93;;
16642;SDS011;8435;52.184;5.406;2023-04-21T04:09:58;15.67;;;14.03;;
16642;SDS011;8435;52.184;5.406;2023-04-21T04:12:25;14.33;;;12.83;;
16642;SDS011;8435;52.184;5.406;2023-04-21T04:14:53;14.60;;;13.10;;
16642;SDS011;8435;52.184;5.406;2023-04-21T04:17:20;14.17;;;12.70;;
16642;SDS011;8435;52.184;5.406;2023-04-21T04:19:47;15.87;;;14.17;;
16642;SDS011;8435;52.184;5.406;2023-04-21T04:22:14;14.70;;;13.23;;
16642;SDS011;8435;52.184;5.406;2023-04-21T04:24:41;15.90;;;14.20;;
16642;SDS011;8435;52.184;5.406;2023-04-21T04:27:09;14.77;;;13.37;;
16642;SDS011;8435;52.184;5.406;2023-04-21T04:29:37;15.23;;;13.73;;
16642;SDS011;8435;52.184;5.406;2023-04-21T04:32:06;15.00;;;13.50;;
16642;SDS011;8435;52.184;5.406;2023-04-21T04:34:35;15.63;;;14.03;;
16642;SDS011;8435;52.184;5.406;2023-04-21T04:37:02;15.43;;;13.80;;
16642;SDS011;8435;52.184;5.406;2023-04-21T04:39:30;16.20;;;14.60;;
16642;SDS011;8435;52.184;5.406;2023-04-21T04:41:57;18.33;;;15.27;;
16642;SDS011;8435;52.184;5.406;2023-04-21T04:44:25;15.53;;;14.03;;
16642;SDS011;8435;52.184;5.406;2023-04-21T04:46:52;16.57;;;14.87;;
16642;SDS011;8435;52.184;5.406;2023-04-21T04:49:20;16.40;;;14.63;;
16642;SDS011;8435;52.184;5.406;2023-04-21T04:51:47;18.03;;;16.20;;
16642;SDS011;8435;52.184;5.406;2023-04-21T04:54:14;16.67;;;14.77;;
16642;SDS011;8435;52.184;5.406;2023-04-21T04:56:41;15.50;;;13.90;;
16642;SDS011;8435;52.184;5.406;2023-04-21T04:59:09;16.77;;;15.07;;
16642;SDS011;8435;52.184;5.406;2023-04-21T05:01:36;16.80;;;14.73;;
16642;SDS011;8435;52.184;5.406;2023-04-21T05:04:04;16.83;;;15.23;;
16642;SDS011;8435;52.184;5.406;2023-04-21T05:06:33;16.40;;;14.80;;
16642;SDS011;8435;52.184;5.406;2023-04-21T05:09:00;17.63;;;15.77;;
16642;SDS011;8435;52.184;5.406;2023-04-21T05:11:28;17.90;;;16.00;;
16642;SDS011;8435;52.184;5.406;2023-04-21T05:13:55;18.10;;;16.40;;
16642;SDS011;8435;52.184;5.406;2023-04-21T05:16:22;17.80;;;16.03;;
16642;SDS011;8435;52.184;5.406;2023-04-21T05:18:49;17.80;;;15.93;;
16642;SDS011;8435;52.184;5.406;2023-04-21T05:21:21;17.97;;;16.17;;
16642;SDS011;8435;52.184;5.406;2023-04-21T05:23:52;17.67;;;15.93;;
16642;SDS011;8435;52.184;5.406;2023-04-21T05:26:20;18.03;;;16.23;;
16642;SDS011;8435;52.184;5.406;2023-04-21T05:28:47;19.93;;;17.83;;
16642;SDS011;8435;52.184;5.406;2023-04-21T05:31:13;18.47;;;16.67;;
16642;SDS011;8435;52.184;5.406;2023-04-21T05:33:40;19.23;;;17.33;;
16642;SDS011;8435;52.184;5.406;2023-04-21T05:36:07;21.30;;;19.03;;
16642;SDS011;8435;52.184;5.406;2023-04-21T05:38:35;20.17;;;18.27;;
16642;SDS011;8435;52.184;5.406;2023-04-21T05:41:03;20.07;;;18.00;;
16642;SDS011;8435;52.184;5.406;2023-04-21T05:43:31;19.33;;;17.30;;
16642;SDS011;8435;52.184;5.406;2023-04-21T05:45:58;19.20;;;17.20;;
16642;SDS011;8435;52.184;5.406;2023-04-21T05:48:25;19.93;;;18.00;;
16642;SDS011;8435;52.184;5.406;2023-04-21T05:50:52;19.20;;;17.20;;
16642;SDS011;8435;52.184;5.406;2023-04-21T05:53:19;19.23;;;17.23;;
16642;SDS011;8435;52.184;5.406;2023-04-21T05:55:47;18.97;;;16.97;;
16642;SDS011;8435;52.184;5.406;2023-04-21T05:58:15;18.90;;;16.83;;
16642;SDS011;8435;52.184;5.406;2023-04-21T06:00:42;20.17;;;18.10;;
16642;SDS011;8435;52.184;5.406;2023-04-21T06:03:11;19.27;;;17.27;;
16642;SDS011;8435;52.184;5.406;2023-04-21T06:05:38;18.47;;;16.57;;
16642;SDS011;8435;52.184;5.406;2023-04-21T06:08:05;18.47;;;16.57;;
16642;SDS011;8435;52.184;5.406;2023-04-21T06:10:31;20.73;;;18.60;;
16642;SDS011;8435;52.184;5.406;2023-04-21T06:12:59;19.93;;;17.93;;
16642;SDS011;8435;52.184;5.406;2023-04-21T06:15:27;19.90;;;17.90;;
16642;SDS011;8435;52.184;5.406;2023-04-21T06:17:54;18.17;;;16.27;;
16642;SDS011;8435;52.184;5.406;2023-04-21T06:20:21;18.87;;;16.93;;
16642;SDS011;8435;52.184;5.406;2023-04-21T06:22:48;19.30;;;17.37;;
16642;SDS011;8435;52.184;5.406;2023-04-21T06:25:15;18.80;;;16.93;;
16642;SDS011;8435;52.184;5.406;2023-04-21T06:27:42;19.27;;;17.27;;
16642;SDS011;8435;52.184;5.406;2023-04-21T06:30:09;20.10;;;18.07;;
16642;SDS011;8435;52.184;5.406;2023-04-21T06:32:38;20.77;;;18.53;;
16642;SDS011;8435;52.184;5.406;2023-04-21T06:35:05;19.73;;;17.70;;
16642;SDS011;8435;52.184;5.406;2023-04-21T06:37:32;19.33;;;17.37;;
16642;SDS011;8435;52.184;5.406;2023-04-21T06:39:59;21.00;;;17.87;;
16642;SDS011;8435;52.184;5.406;2023-04-21T06:42:26;20.93;;;18.77;;
16642;SDS011;8435;52.184;5.406;2023-04-21T06:44:53;21.20;;;19.03;;
16642;SDS011;8435;52.184;5.406;2023-04-21T06:47:21;21.77;;;19.57;;
16642;SDS011;8435;52.184;5.406;2023-04-21T06:49:49;19.03;;;17.20;;
16642;SDS011;8435;52.184;5.406;2023-04-21T06:52:25;19.80;;;17.80;;
16642;SDS011;8435;52.184;5.406;2023-04-21T06:54:51;19.77;;;17.67;;
16642;SDS011;8435;52.184;5.406;2023-04-21T06:57:18;19.87;;;17.97;;
16642;SDS011;8435;52.184;5.406;2023-04-21T06:59:45;19.60;;;17.63;;
16642;SDS011;8435;52.184;5.406;2023-04-21T07:02:12;19.53;;;17.20;;
16642;SDS011;8435;52.184;5.406;2023-04-21T07:04:38;20.70;;;18.57;;
16642;SDS011;8435;52.184;5.406;2023-04-21T07:07:07;21.43;;;19.23;;
16642;SDS011;8435;52.184;5.406;2023-04-21T07:09:34;20.80;;;18.70;;
16642;SDS011;8435;52.184;5.406;2023-04-21T07:12:00;19.83;;;17.87;;
16642;SDS011;8435;52.184;5.406;2023-04-21T07:14:27;20.83;;;18.73;;
16642;SDS011;8435;52.184;5.406;2023-04-21T07:16:54;19.90;;;17.93;;
16642;SDS011;8435;52.184;5.406;2023-04-21T07:19:24;21.33;;;19.27;;
16642;SDS011;8435;52.184;5.406;2023-04-21T07:21:51;20.27;;;18.27;;
16642;SDS011;8435;52.184;5.406;2023-04-21T07:24:19;20.90;;;18.80;;
16642;SDS011;8435;52.184;5.406;2023-04-21T07:26:46;21.33;;;19.23;;
16642;SDS011;8435;52.184;5.406;2023-04-21T07:29:13;20.77;;;18.77;;
16642;SDS011;8435;52.184;5.406;2023-04-21T07:31:40;21.27;;;19.27;;
16642;SDS011;8435;52.184;5.406;2023-04-21T07:34:06;20.97;;;18.77;;
16642;SDS011;8435;52.184;5.406;2023-04-21T07:36:36;22.37;;;20.07;;
16642;SDS011;8435;52.184;5.406;2023-04-21T07:39:03;20.20;;;18.40;;
16642;SDS011;8435;52.184;5.406;2023-04-21T07:41:31;23.00;;;19.50;;
16642;SDS011;8435;52.184;5.406;2023-04-21T07:43:58;21.80;;;19.80;;
16642;SDS011;8435;52.184;5.406;2023-04-21T07:46:25;21.07;;;19.07;;
16642;SDS011;8435;52.184;5.406;2023-04-21T07:48:54;21.43;;;19.33;;
16642;SDS011;8435;52.184;5.406;2023-04-21T07:51:21;21.33;;;19.33;;
16642;SDS011;8435;52.184;5.406;2023-04-21T07:53:52;20.67;;;18.67;;
16642;SDS011;8435;52.184;5.406;2023-04-21T07:56:19;23.73;;;21.43;;
16642;SDS011;8435;52.184;5.406;2023-04-21T07:58:47;22.80;;;20.63;;
16642;SDS011;8435;52.184;5.406;2023-04-21T08:01:14;22.63;;;20.43;;
16642;SDS011;8435;52.184;5.406;2023-04-21T08:03:40;21.60;;;19.50;;
16642;SDS011;8435;52.184;5.406;2023-04-21T08:06:10;23.60;;;20.27;;
16642;SDS011;8435;52.184;5.406;2023-04-21T08:08:37;23.43;;;21.13;;
16642;SDS011;8435;52.184;5.406;2023-04-21T08:11:05;22.20;;;19.90;;
16642;SDS011;8435;52.184;5.406;2023-04-21T08:13:35;22.47;;;20.30;;
16642;SDS011;8435;52.184;5.406;2023-04-21T08:16:03;22.67;;;20.47;;
16642;SDS011;8435;52.184;5.406;2023-04-21T08:18:36;24.43;;;21.87;;
16642;SDS011;8435;52.184;5.406;2023-04-21T08:21:03;24.03;;;21.70;;
16642;SDS011;8435;52.184;5.406;2023-04-21T08:23:30;23.13;;;20.83;;
16642;SDS011;8435;52.184;5.406;2023-04-21T08:25:57;23.60;;;21.30;;
16642;SDS011;8435;52.184;5.406;2023-04-21T08:28:23;22.73;;;20.53;;
16642;SDS011;8435;52.184;5.406;2023-04-21T08:30:50;23.17;;;20.87;;
16642;SDS011;8435;52.184;5.406;2023-04-21T08:33:18;22.13;;;20.00;;
16642;SDS011;8435;52.184;5.406;2023-04-21T08:35:45;24.97;;;22.57;;
16642;SDS011;8435;52.184;5.406;2023-04-21T08:38:12;23.63;;;21.33;;
16642;SDS011;8435;52.184;5.406;2023-04-21T08:40:38;22.23;;;20.03;;
16642;SDS011;8435;52.184;5.406;2023-04-21T08:43:06;23.57;;;21.37;;
16642;SDS011;8435;52.184;5.406;2023-04-21T08:45:34;22.30;;;20.13;;
16642;SDS011;8435;52.184;5.406;2023-04-21T08:48:01;22.37;;;20.33;;
16642;SDS011;8435;52.184;5.406;2023-04-21T08:50:32;21.50;;;19.37;;
16642;SDS011;8435;52.184;5.406;2023-04-21T08:53:01;21.93;;;19.73;;
16642;SDS011;8435;52.184;5.406;2023-04-21T08:55:28;22.13;;;20.03;;
16642;SDS011;8435;52.184;5.406;2023-04-21T08:57:56;21.80;;;19.60;;
16642;SDS011;8435;52.184;5.406;2023-04-21T09:00:23;22.77;;;20.67;;
16642;SDS011;8435;52.184;5.406;2023-04-21T09:02:53;22.43;;;20.27;;
16642;SDS011;8435;52.184;5.406;2023-04-21T09:05:21;22.57;;;20.37;;
16642;SDS011;8435;52.184;5.406;2023-04-21T09:07:52;21.60;;;19.63;;
16642;SDS011;8435;52.184;5.406;2023-04-21T09:10:32;22.20;;;19.90;;
16642;SDS011;8435;52.184;5.406;2023-04-21T09:13:01;21.77;;;19.53;;
16642;SDS011;8435;52.184;5.406;2023-04-21T09:15:36;21.83;;;19.73;;
16642;SDS011;8435;52.184;5.406;2023-04-21T09:18:04;23.47;;;20.70;;
16642;SDS011;8435;52.184;5.406;2023-04-21T09:20:45;22.37;;;20.17;;
16642;SDS011;8435;52.184;5.406;2023-04-21T09:23:17;22.17;;;20.07;;
16642;SDS011;8435;52.184;5.406;2023-04-21T09:25:46;22.53;;;20.37;;
16642;SDS011;8435;52.184;5.406;2023-04-21T09:28:13;24.30;;;21.90;;
16642;SDS011;8435;52.184;5.406;2023-04-21T09:30:41;24.23;;;21.87;;
16642;SDS011;8435;52.184;5.406;2023-04-21T09:33:13;22.50;;;20.30;;
16642;SDS011;8435;52.184;5.406;2023-04-21T09:35:40;22.97;;;20.77;;
16642;SDS011;8435;52.184;5.406;2023-04-21T09:38:08;23.50;;;21.20;;
16642;SDS011;8435;52.184;5.406;2023-04-21T09:40:38;23.23;;;21.13;;
16642;SDS011;8435;52.184;5.406;2023-04-21T09:43:05;22.73;;;20.63;;
16642;SDS011;8435;52.184;5.406;2023-04-21T09:45:32;23.80;;;21.37;;
16642;SDS011;8435;52.184;5.406;2023-04-21T09:48:02;22.23;;;20.03;;
16642;SDS011;8435;52.184;5.406;2023-04-21T09:50:30;24.37;;;22.00;;
16642;SDS011;8435;52.184;5.406;2023-04-21T09:52:57;23.20;;;20.93;;
16642;SDS011;8435;52.184;5.406;2023-04-21T09:55:28;22.27;;;20.07;;
16642;SDS011;8435;52.184;5.406;2023-04-21T09:57:57;23.40;;;21.10;;
16642;SDS011;8435;52.184;5.406;2023-04-21T10:00:29;22.20;;;20.10;;
16642;SDS011;8435;52.184;5.406;2023-04-21T10:02:57;22.40;;;20.37;;
16642;SDS011;8435;52.184;5.406;2023-04-21T10:05:26;21.80;;;19.80;;
16642;SDS011;8435;52.184;5.406;2023-04-21T10:07:53;23.43;;;21.13;;
16642;SDS011;8435;52.184;5.406;2023-04-21T10:10:22;22.63;;;20.53;;
16642;SDS011;8435;52.184;5.406;2023-04-21T10:12:50;22.23;;;20.10;;
16642;SDS011;8435;52.184;5.406;2023-04-21T10:15:32;22.50;;;20.40;;
16642;SDS011;8435;52.184;5.406;2023-04-21T10:18:13;24.07;;;21.00;;
16642;SDS011;8435;52.184;5.406;2023-04-21T10:20:51;25.33;;;22.73;;
16642;SDS011;8435;52.184;5.406;2023-04-21T10:23:26;22.93;;;20.77;;
16642;SDS011;8435;52.184;5.406;2023-04-21T10:26:03;21.97;;;19.87;;
16642;SDS011;8435;52.184;5.406;2023-04-21T10:31:29;22.17;;;20.13;;
16642;SDS011;8435;52.184;5.406;2023-04-21T10:34:13;21.27;;;18.97;;
16642;SDS011;8435;52.184;5.406;2023-04-21T10:36:41;21.33;;;19.20;;
16642;SDS011;8435;52.184;5.406;2023-04-21T10:39:25;21.93;;;19.93;;
16642;SDS011;8435;52.184;5.406;2023-04-21T10:41:53;23.47;;;21.17;;
16642;SDS011;8435;52.184;5.406;2023-04-21T10:44:24;24.40;;;22.10;;
16642;SDS011;8435;52.184;5.406;2023-04-21T10:46:58;23.77;;;21.53;;
16642;SDS011;8435;52.184;5.406;2023-04-21T10:49:25;22.73;;;20.50;;
16642;SDS011;8435;52.184;5.406;2023-04-21T10:52:04;23.60;;;21.23;;
16642;SDS011;8435;52.184;5.406;2023-04-21T10:54:36;22.33;;;20.23;;
16642;SDS011;8435;52.184;5.406;2023-04-21T10:57:07;23.90;;;21.70;;
16642;SDS011;8435;52.184;5.406;2023-04-21T10:59:39;23.00;;;20.83;;
16642;SDS011;8435;52.184;5.406;2023-04-21T11:02:11;22.03;;;19.93;;
16642;SDS011;8435;52.184;5.406;2023-04-21T11:04:39;23.10;;;20.90;;
16642;SDS011;8435;52.184;5.406;2023-04-21T11:07:12;23.27;;;20.90;;
16642;SDS011;8435;52.184;5.406;2023-04-21T11:09:40;21.97;;;19.87;;
16642;SDS011;8435;52.184;5.406;2023-04-21T11:12:09;21.77;;;19.63;;
16642;SDS011;8435;52.184;5.406;2023-04-21T11:14:37;23.17;;;20.97;;
16642;SDS011;8435;52.184;5.406;2023-04-21T11:17:11;22.13;;;20.03;;
16642;SDS011;8435;52.184;5.406;2023-04-21T11:19:38;21.87;;;19.57;;
16642;SDS011;8435;52.184;5.406;2023-04-21T11:22:06;22.10;;;19.90;;
16642;SDS011;8435;52.184;5.406;2023-04-21T11:24:32;20.93;;;18.83;;
16642;SDS011;8435;52.184;5.406;2023-04-21T11:27:00;20.63;;;18.63;;
16642;SDS011;8435;52.184;5.406;2023-04-21T11:29:32;21.07;;;19.07;;
16642;SDS011;8435;52.184;5.406;2023-04-21T11:31:59;22.00;;;19.87;;
16642;SDS011;8435;52.184;5.406;2023-04-21T11:34:35;21.73;;;19.60;;
16642;SDS011;8435;52.184;5.406;2023-04-21T11:37:05;21.33;;;19.23;;
16642;SDS011;8435;52.184;5.406;2023-04-21T11:39:38;21.53;;;19.30;;
16642;SDS011;8435;52.184;5.406;2023-04-21T11:42:06;21.17;;;18.90;;
16642;SDS011;8435;52.184;5.406;2023-04-21T11:44:34;21.13;;;19.03;;
16642;SDS011;8435;52.184;5.406;2023-04-21T11:47:11;21.67;;;19.70;;
16642;SDS011;8435;52.184;5.406;2023-04-21T11:49:44;21.07;;;19.17;;
16642;SDS011;8435;52.184;5.406;2023-04-21T11:52:19;21.47;;;19.40;;
16642;SDS011;8435;52.184;5.406;2023-04-21T11:54:47;20.97;;;18.73;;
16642;SDS011;8435;52.184;5.406;2023-04-21T11:57:21;20.90;;;18.97;;
16642;SDS011;8435;52.184;5.406;2023-04-21T11:59:48;22.87;;;20.60;;
16642;SDS011;8435;52.184;5.406;2023-04-21T12:02:19;22.57;;;20.17;;
16642;SDS011;8435;52.184;5.406;2023-04-21T12:04:59;21.53;;;19.43;;
16642;SDS011;8435;52.184;5.406;2023-04-21T12:07:28;21.57;;;19.33;;
16642;SDS011;8435;52.184;5.406;2023-04-21T12:09:56;21.37;;;19.37;;
16642;SDS011;8435;52.184;5.406;2023-04-21T12:12:23;22.38;;;20.27;;
16642;SDS011;8435;52.184;5.406;2023-04-21T12:14:49;20.60;;;18.70;;
16642;SDS011;8435;52.184;5.406;2023-04-21T12:17:20;19.77;;;17.88;;
16642;SDS011;8435;52.184;5.406;2023-04-21T12:19:46;19.33;;;17.45;;
16642;SDS011;8435;52.184;5.406;2023-04-21T12:22:15;17.80;;;16.10;;
16642;SDS011;8435;52.184;5.406;2023-04-21T12:24:43;18.13;;;16.33;;
16642;SDS011;8435;52.184;5.406;2023-04-21T12:27:11;17.80;;;16.20;;
16642;SDS011;8435;52.184;5.406;2023-04-21T12:29:38;18.30;;;16.55;;
16642;SDS011;8435;52.184;5.406;2023-04-21T12:32:05;17.58;;;15.98;;
16642;SDS011;8435;52.184;5.406;2023-04-21T12:34:34;17.00;;;15.40;;
16642;SDS011;8435;52.184;5.406;2023-04-21T12:37:03;17.33;;;15.63;;
16642;SDS011;8435;52.184;5.406;2023-04-21T12:39:31;16.48;;;14.88;;
16642;SDS011;8435;52.184;5.406;2023-04-21T12:41:58;17.83;;;16.20;;
16642;SDS011;8435;52.184;5.406;2023-04-21T12:44:25;18.35;;;16.27;;
16642;SDS011;8435;52.184;5.406;2023-04-21T12:46:52;17.95;;;16.27;;
16642;SDS011;8435;52.184;5.406;2023-04-21T12:49:19;20.45;;;18.38;;
16642;SDS011;8435;52.184;5.406;2023-04-21T12:51:47;16.92;;;15.32;;
16642;SDS011;8435;52.184;5.406;2023-04-21T12:54:14;17.80;;;16.15;;
16642;SDS011;8435;52.184;5.406;2023-04-21T12:56:43;19.38;;;17.48;;
16642;SDS011;8435;52.184;5.406;2023-04-21T12:59:12;20.58;;;18.70;;
16642;SDS011;8435;52.184;5.406;2023-04-21T13:01:42;21.35;;;19.20;;
16642;SDS011;8435;52.184;5.406;2023-04-21T13:04:09;23.40;;;21.00;;
16642;SDS011;8435;52.184;5.406;2023-04-21T13:06:37;23.45;;;21.15;;
16642;SDS011;8435;52.184;5.406;2023-04-21T13:09:04;22.77;;;20.58;;
16642;SDS011;8435;52.184;5.406;2023-04-21T13:11:31;22.27;;;19.98;;
16642;SDS011;8435;52.184;5.406;2023-04-21T13:13:59;21.27;;;19.20;;
16642;SDS011;8435;52.184;5.406;2023-04-21T13:16:28;21.35;;;19.27;;
16642;SDS011;8435;52.184;5.406;2023-04-21T13:18:55;21.23;;;19.15;;
16642;SDS011;8435;52.184;5.406;2023-04-21T13:21:21;22.17;;;18.70;;
16642;SDS011;8435;52.184;5.406;2023-04-21T13:23:51;21.87;;;19.77;;
16642;SDS011;8435;52.184;5.406;2023-04-21T13:26:18;23.17;;;20.90;;
16642;SDS011;8435;52.184;5.406;2023-04-21T13:28:45;23.02;;;20.70;;
16642;SDS011;8435;52.184;5.406;2023-04-21T13:31:14;21.88;;;19.65;;
16642;SDS011;8435;52.184;5.406;2023-04-21T13:33:44;21.95;;;19.77;;
16642;SDS011;8435;52.184;5.406;2023-04-21T13:36:11;21.92;;;19.88;;
16642;SDS011;8435;52.184;5.406;2023-04-21T13:38:37;22.95;;;20.83;;
16642;SDS011;8435;52.184;5.406;2023-04-21T13:41:08;21.63;;;19.52;;
16642;SDS011;8435;52.184;5.406;2023-04-21T13:43:35;21.65;;;19.58;;
16642;SDS011;8435;52.184;5.406;2023-04-21T13:46:03;22.58;;;20.48;;
16642;SDS011;8435;52.184;5.406;2023-04-21T13:48:31;22.30;;;20.00;;
16642;SDS011;8435;52.184;5.406;2023-04-21T13:50:58;21.67;;;19.48;;
16642;SDS011;8435;52.184;5.406;2023-04-21T13:53:25;20.80;;;18.83;;
16642;SDS011;8435;52.184;5.406;2023-04-21T13:55:52;19.80;;;17.90;;
16642;SDS011;8435;52.184;5.406;2023-04-21T13:58:20;19.80;;;17.90;;
16642;SDS011;8435;52.184;5.406;2023-04-21T14:00:47;18.40;;;16.70;;
16642;SDS011;8435;52.184;5.406;2023-04-21T14:03:17;17.58;;;15.88;;
16642;SDS011;8435;52.184;5.406;2023-04-21T14:05:46;17.50;;;15.75;;
16642;SDS011;8435;52.184;5.406;2023-04-21T14:08:13;16.88;;;15.27;;
16642;SDS011;8435;52.184;5.406;2023-04-21T14:10:40;17.85;;;16.15;;
16642;SDS011;8435;52.184;5.406;2023-04-21T14:13:07;17.10;;;15.57;;
16642;SDS011;8435;52.184;5.406;2023-04-21T14:15:33;17.58;;;15.88;;
16642;SDS011;8435;52.184;5.406;2023-04-21T14:18:00;17.42;;;15.60;;
16642;SDS011;8435;52.184;5.406;2023-04-21T14:20:29;18.33;;;16.63;;
16642;SDS011;8435;52.184;5.406;2023-04-21T14:22:58;17.48;;;15.77;;
16642;SDS011;8435;52.184;5.406;2023-04-21T14:25:25;17.65;;;15.95;;
16642;SDS011;8435;52.184;5.406;2023-04-21T14:27:51;16.73;;;15.02;;
16642;SDS011;8435;52.184;5.406;2023-04-21T14:30:18;17.45;;;15.57;;
16642;SDS011;8435;52.184;5.406;2023-04-21T14:32:46;15.90;;;14.43;;
16642;SDS011;8435;52.184;5.406;2023-04-21T14:35:13;16.13;;;14.63;;
16642;SDS011;8435;52.184;5.406;2023-04-21T14:37:40;16.10;;;14.50;;
16642;SDS011;8435;52.184;5.406;2023-04-21T14:40:09;15.48;;;13.88;;
16642;SDS011;8435;52.184;5.406;2023-04-21T14:42:36;16.27;;;14.73;;
16642;SDS011;8435;52.184;5.406;2023-04-21T14:45:03;16.58;;;15.07;;